Macomb, MI (48042)

9:39 PM EST on February 11, 2016 (GMT -0500)
Indian Pointe | | Change Station
CLOSE
Current Station
Personal Weather Station
Location: Macomb, MI
Elevation: 607 ft
Nearby Weather Stations

Elev 607 ft 42.68 °N, 82.92 °W | Updated 26 seconds ago

Clear
Clear
5.5 °F
Feels Like 6 °F
N
0.0
Wind Variable Wind from NNE
Gusts 0.0 mph

Today
High -- | Low -- °F
--% Chance of Precip.
Yesterday
High -- | Low -- °F
Precip. -- in
Pressure 30.27 in
Visibility 10.0 miles
Clouds Clear
Windchill 6 °F
Dew Point 2 °F
Humidity 85%
Rainfall 0.00 in
Snow Depth Not available.
7:34 AM 5:57 PM
Waxing Crescent, 16% visible
METAR KMTC 120158Z AUTO 19004KT 10SM CLR M13/M16 A3022 RMK AO2 SLP250 T11281161
Pressure 30.27 in
Visibility 10.0 miles
Clouds Clear
Windchill 6 °F
Dew Point 2 °F
Humidity 85%
Rainfall 0.00 in
Snow Depth Not available.
7:34 AM 5:57 PM
Waxing Crescent, 16% visible
METAR KMTC 120158Z AUTO 19004KT 10SM CLR M13/M16 A3022 RMK AO2 SLP250 T11281161

10-Day Weather Forecast

Almanac

Astronomy

Feb. 11, 2016 Rise Set
Actual Time
Civil Twilight
Nautical Twilight
Astronomical Twilight
Moon
Length of Visible Light
Length of Day
Tomorrow will be .
, % of the Moon is Illuminated

Today's Extremes

State Highs State Lows

Community

WunderPhotos

Upload Photos

1,892,226 photos uploaded!

WunderBlog® & News

Nearby

Air Quality

  Air Quality AQ Index Pollutant
Not available.

Snow Depth

Station Depth Elevation

Earthquake Activity

City Distance Mag. Time & Date
Minimum magnitude displayed is 2.5.

Coastal Water Temperatures

Place Temperature

Stations

Nearby Weather Stations

Station Location Temp. Windchill Dew Point Humidity Wind Precip. Elev Updated Type
                   

Watches & Warnings

There are currently no watches in effect.